KOXD/OXD METAR and TAF weather

Enter ICAO airport designator
Station Type Date Time Source
KOXD METAR 2019/08/22 05:15 UTC NOAA

KOXD 220515Z AUTO 31003KT 10SM CLR 20/20 A2999 RMK AO2 T02020202


Station Type Date Time Source
KOXD Decoded METAR 2019/08/22 05:15 UTC NOAA

Station name not available
Aug 22, 2019 - 01:15 AM EDT / 2019.08.22 0515 UTC
Wind: from the NW (310 degrees) at 3 MPH (3 KT):0
Visibility: 10 mile(s):0
Sky conditions: clear
Temperature: 68.4 F (20.2 C)
Dew Point: 68.4 F (20.2 C)
Relative Humidity: 100%
Pressure (altimeter): 29.99 in. Hg (1015 hPa)
ob: KOXD 220515Z AUTO 31003KT 10SM CLR 20/20 A2999 RMK AO2 T02020202
cycle: 5

Station Type Date Time Source
KOXD TAF UTC NOAA

Error!

Example: see airport list